createdAt,value
2018-06-24T00:03:13.450Z,76.00
2018-06-24T00:05:45.034Z,76.50
2018-06-24T00:08:16.597Z,77.10
2018-06-24T00:10:48.122Z,77.60
2018-06-24T00:13:19.741Z,78.00
2018-06-24T00:15:51.459Z,78.10
2018-06-24T00:18:23.044Z,78.30
2018-06-24T00:20:54.681Z,78.60
2018-06-24T00:23:26.501Z,78.60
2018-06-24T00:25:58.338Z,78.50
2018-06-24T00:28:30.113Z,78.90
2018-06-24T00:31:01.602Z,78.80
2018-06-24T00:33:33.272Z,79.00
2018-06-24T00:36:04.805Z,78.70
2018-06-24T00:38:36.497Z,78.90
2018-06-24T00:41:08.244Z,79.00
2018-06-24T00:46:10.802Z,79.30
2018-06-24T00:48:42.703Z,79.40
2018-06-24T00:51:14.205Z,78.80
2018-06-24T00:53:45.833Z,78.90
2018-06-24T00:56:17.654Z,79.00
2018-06-24T00:58:49.234Z,79.30
2018-06-24T01:01:20.745Z,79.30
2018-06-24T01:03:52.330Z,79.30
2018-06-24T01:06:23.938Z,79.40
2018-06-24T01:08:55.566Z,79.30
2018-06-24T01:11:27.046Z,79.10
2018-06-24T01:13:58.673Z,78.90
2018-06-24T01:16:30.253Z,78.60
2018-06-24T01:19:02.026Z,77.80
2018-06-24T01:21:33.590Z,77.10
2018-06-24T01:24:05.321Z,76.40
2018-06-24T01:26:36.809Z,76.00
2018-06-24T01:29:08.482Z,75.90
2018-06-24T01:31:40.098Z,75.80
2018-06-24T01:34:11.713Z,76.30
2018-06-24T01:36:43.213Z,75.20
2018-06-24T01:39:14.802Z,75.00
2018-06-24T01:41:46.571Z,75.00
2018-06-24T01:44:18.217Z,75.80
2018-06-24T01:46:49.824Z,75.50
2018-06-24T01:49:21.529Z,75.70
2018-06-24T01:51:53.146Z,76.10
2018-06-24T01:54:24.728Z,76.40
2018-06-24T01:56:56.356Z,76.80
2018-06-24T01:59:27.949Z,77.10
2018-06-24T02:01:59.465Z,77.40
2018-06-24T02:04:31.055Z,77.10
2018-06-24T02:07:02.668Z,76.90
2018-06-24T02:09:34.428Z,76.90
2018-06-24T02:12:06.110Z,77.00
2018-06-24T02:14:37.793Z,77.10
2018-06-24T02:17:09.305Z,77.50
2018-06-24T02:19:40.928Z,77.30
2018-06-24T02:22:12.610Z,77.20
2018-06-24T02:24:44.080Z,76.90
2018-06-24T02:27:15.762Z,76.70
2018-06-24T02:29:47.365Z,76.60
2018-06-24T02:32:19.045Z,76.40
2018-06-24T02:34:50.699Z,76.90
2018-06-24T02:37:22.241Z,76.80
2018-06-24T02:39:53.879Z,76.70
2018-06-24T02:42:25.572Z,76.50
2018-06-24T02:44:57.137Z,76.30
2018-06-24T02:47:28.765Z,76.20
2018-06-24T02:50:00.365Z,76.20
2018-06-24T02:52:31.985Z,76.30
2018-06-24T02:55:03.598Z,76.40
2018-06-24T03:00:06.309Z,76.70
2018-06-24T03:02:37.937Z,76.80
2018-06-24T03:05:09.509Z,76.90
2018-06-24T03:07:41.333Z,76.70
2018-06-24T03:10:13.001Z,76.50
2018-06-24T03:12:44.627Z,76.50
2018-06-24T03:15:16.241Z,76.60
2018-06-24T03:17:47.927Z,76.70
2018-06-24T03:20:19.729Z,76.80
2018-06-24T03:22:51.265Z,76.90
2018-06-24T03:25:22.941Z,76.10
2018-06-24T03:27:54.480Z,76.30
2018-06-24T03:30:26.214Z,76.60
2018-06-24T03:32:57.751Z,76.00
2018-06-24T03:35:29.368Z,76.30
2018-06-24T03:38:00.975Z,76.20
2018-06-24T03:40:32.738Z,75.90
2018-06-24T03:43:04.300Z,75.90
2018-06-24T03:45:36.125Z,75.90
2018-06-24T03:48:07.745Z,75.70
2018-06-24T03:50:39.208Z,75.70
2018-06-24T03:53:10.697Z,75.20
2018-06-24T03:55:42.311Z,76.00
2018-06-24T03:58:13.813Z,76.10
2018-06-24T04:00:45.421Z,76.70
2018-06-24T04:03:17.071Z,76.30
2018-06-24T04:05:48.658Z,75.90
2018-06-24T04:08:20.474Z,75.60
2018-06-24T04:10:52.041Z,75.70
2018-06-24T04:13:23.652Z,75.80
2018-06-24T04:16:03.679Z,76.70
2018-06-24T04:18:43.394Z,76.00
2018-06-24T04:21:15.973Z,75.90
2018-06-24T04:23:47.589Z,75.80
2018-06-24T04:26:19.220Z,75.70
2018-06-24T04:28:50.790Z,75.80
2018-06-24T04:31:22.499Z,75.20
2018-06-24T04:33:54.149Z,76.00
2018-06-24T04:36:25.809Z,75.20
2018-06-24T04:38:57.545Z,75.70
2018-06-24T04:41:29.112Z,74.70
2018-06-24T04:44:00.776Z,74.60
2018-06-24T04:46:32.366Z,74.20
2018-06-24T04:49:04.101Z,73.90
2018-06-24T04:51:35.717Z,74.00
2018-06-24T04:54:07.458Z,74.10
2018-06-24T04:56:39.060Z,74.20
2018-06-24T04:59:10.573Z,74.30
2018-06-24T05:01:42.042Z,75.00
2018-06-24T05:04:13.677Z,74.30
2018-06-24T05:06:45.276Z,74.30
2018-06-24T05:09:16.893Z,74.30
2018-06-24T05:11:48.490Z,74.30
2018-06-24T05:14:19.997Z,73.90
2018-06-24T05:16:51.585Z,74.00
2018-06-24T05:19:23.214Z,73.70
2018-06-24T05:21:54.863Z,73.50
2018-06-24T05:24:26.486Z,73.10
2018-06-24T05:26:58.125Z,72.80
2018-06-24T05:29:29.620Z,72.70
2018-06-24T05:32:01.330Z,72.70
2018-06-24T05:34:32.842Z,72.60
2018-06-24T05:37:04.469Z,72.20
2018-06-24T05:39:36.161Z,72.60
2018-06-24T05:42:07.780Z,72.90
2018-06-24T05:44:39.463Z,72.60
2018-06-24T05:47:11.095Z,72.70
2018-06-24T05:49:42.734Z,72.20
2018-06-24T05:52:14.406Z,72.10
2018-06-24T05:54:46.050Z,71.90
2018-06-24T05:57:17.469Z,72.00
2018-06-24T05:59:49.045Z,72.20
2018-06-24T06:02:20.593Z,72.20
2018-06-24T06:04:52.309Z,71.50
2018-06-24T06:07:23.929Z,71.40
2018-06-24T06:09:55.517Z,70.90
2018-06-24T06:12:27.117Z,71.30
2018-06-24T06:14:58.633Z,71.00
2018-06-24T06:17:30.323Z,70.10
2018-06-24T06:20:01.958Z,69.10
2018-06-24T06:22:33.524Z,69.00
2018-06-24T06:25:05.339Z,68.90
2018-06-24T06:27:36.950Z,68.30
2018-06-24T06:30:09.146Z,68.60
2018-06-24T06:32:40.875Z,68.30
2018-06-24T06:35:12.552Z,67.60
2018-06-24T06:37:44.308Z,67.80
2018-06-24T06:40:15.961Z,67.50
2018-06-24T06:42:47.377Z,68.20
2018-06-24T06:45:19.259Z,68.50
2018-06-24T06:47:50.715Z,67.80
2018-06-24T06:50:22.389Z,67.30
2018-06-24T06:52:54.002Z,68.20
2018-06-24T06:55:25.645Z,68.00
2018-06-24T06:57:57.443Z,67.30
2018-06-24T07:00:28.978Z,67.00
2018-06-24T07:03:00.722Z,66.30
2018-06-24T07:05:32.257Z,66.20
2018-06-24T07:08:04.023Z,66.50
2018-06-24T07:10:35.712Z,66.50
2018-06-24T07:13:07.455Z,66.00
2018-06-24T07:15:38.980Z,66.40
2018-06-24T07:18:10.612Z,66.10
2018-06-24T07:20:42.249Z,66.10
2018-06-24T07:23:14.934Z,64.70
2018-06-24T07:25:46.564Z,64.40
2018-06-24T07:28:18.167Z,63.40
2018-06-24T07:30:49.896Z,63.90
2018-06-24T07:33:21.472Z,63.50
2018-06-24T07:35:53.169Z,62.20
2018-06-24T07:38:24.868Z,62.10
2018-06-24T07:40:56.405Z,61.70
2018-06-24T07:43:28.141Z,61.80
2018-06-24T07:45:59.717Z,61.50
2018-06-24T07:48:31.391Z,61.80
2018-06-24T07:51:02.933Z,61.50
2018-06-24T07:53:34.704Z,63.00
2018-06-24T07:56:06.208Z,60.70
2018-06-24T07:58:37.924Z,60.80
2018-06-24T08:01:09.529Z,59.80
2018-06-24T08:03:41.149Z,59.50
2018-06-24T08:06:12.782Z,59.50
2018-06-24T08:08:44.203Z,59.30
2018-06-24T08:11:15.897Z,58.70
2018-06-24T08:13:47.459Z,58.40
2018-06-24T08:16:18.980Z,58.70
2018-06-24T08:18:50.577Z,58.50
2018-06-24T08:21:22.164Z,57.90
2018-06-24T08:23:53.966Z,57.50
2018-06-24T08:26:25.509Z,56.90
2018-06-24T08:28:57.238Z,57.50
2018-06-24T08:31:28.720Z,56.20
2018-06-24T08:34:00.392Z,55.90
2018-06-24T08:36:32.041Z,56.60
2018-06-24T08:39:04.090Z,56.40
2018-06-24T08:41:35.971Z,55.90
2018-06-24T08:44:08.496Z,54.80
2018-06-24T08:46:40.221Z,53.50
2018-06-24T08:49:11.878Z,53.50
2018-06-24T08:51:43.369Z,53.70
2018-06-24T08:54:15.095Z,54.40
2018-06-24T08:56:46.692Z,54.30
2018-06-24T08:59:18.348Z,54.50
2018-06-24T09:01:50.005Z,54.40
2018-06-24T09:04:21.594Z,53.90
2018-06-24T09:09:24.131Z,53.50
2018-06-24T09:11:55.850Z,53.30
2018-06-24T09:14:27.492Z,53.10
2018-06-24T09:16:59.174Z,53.40
2018-06-24T09:19:30.838Z,53.40
2018-06-24T09:22:02.462Z,53.20
2018-06-24T09:24:34.189Z,53.50
2018-06-24T09:27:05.788Z,53.60
2018-06-24T09:29:37.466Z,53.90
2018-06-24T09:32:09.181Z,54.20
2018-06-24T09:34:40.817Z,53.90
2018-06-24T09:37:12.515Z,54.40
2018-06-24T09:39:44.159Z,53.30
2018-06-24T09:42:15.653Z,53.70
2018-06-24T09:44:47.042Z,53.50
2018-06-24T09:47:18.770Z,53.60
2018-06-24T09:49:50.400Z,53.30
2018-06-24T09:52:22.786Z,53.30
2018-06-24T09:54:54.588Z,53.50
2018-06-24T09:57:26.211Z,54.40
2018-06-24T09:59:57.821Z,55.00
2018-06-24T10:02:29.635Z,54.50
2018-06-24T10:05:01.198Z,54.80
2018-06-24T10:07:33.428Z,54.80
2018-06-24T10:10:08.876Z,54.60
2018-06-24T10:12:41.291Z,54.10
2018-06-24T10:15:13.098Z,53.70
2018-06-24T10:17:44.682Z,52.10
2018-06-24T10:20:16.375Z,52.70
2018-06-24T10:22:49.110Z,52.90
2018-06-24T10:25:20.710Z,53.30
2018-06-24T10:27:52.422Z,53.20
2018-06-24T10:30:24.163Z,53.60
2018-06-24T10:32:55.750Z,53.50
2018-06-24T10:35:27.357Z,53.90
2018-06-24T10:37:59.093Z,53.30
2018-06-24T10:40:30.689Z,52.80
2018-06-24T10:43:02.482Z,53.00
2018-06-24T10:45:34.088Z,52.80
2018-06-24T10:48:06.371Z,52.60
2018-06-24T10:50:38.372Z,52.50
2018-06-24T10:53:10.692Z,52.60
2018-06-24T10:55:42.248Z,51.70
2018-06-24T10:58:14.013Z,49.50
2018-06-24T11:00:45.432Z,48.90
2018-06-24T11:03:17.025Z,49.50
2018-06-24T11:05:48.641Z,49.80
2018-06-24T11:08:20.393Z,49.10
2018-06-24T11:10:51.980Z,49.70
2018-06-24T11:13:23.766Z,48.80
2018-06-24T11:15:57.249Z,49.00
2018-06-24T11:18:29.122Z,49.30
2018-06-24T11:21:00.845Z,49.00
2018-06-24T11:23:32.508Z,49.20
2018-06-24T11:26:04.156Z,49.20
2018-06-24T11:28:35.762Z,48.90
2018-06-24T11:31:07.822Z,48.90
2018-06-24T11:33:39.413Z,48.80
2018-06-24T11:36:13.854Z,48.20
2018-06-24T11:38:45.753Z,48.20
2018-06-24T11:41:17.150Z,47.60
2018-06-24T11:43:48.652Z,47.90
2018-06-24T11:46:20.301Z,47.60
2018-06-24T11:48:52.067Z,47.60
2018-06-24T11:51:23.673Z,47.70
2018-06-24T11:53:55.385Z,48.40
2018-06-24T11:56:27.039Z,47.90
2018-06-24T11:58:58.713Z,49.00
2018-06-24T12:01:30.162Z,48.90
2018-06-24T12:04:01.708Z,49.30
2018-06-24T12:06:33.214Z,49.90
2018-06-24T12:09:06.897Z,49.90
2018-06-24T12:11:38.570Z,50.10
2018-06-24T12:14:10.481Z,50.10
2018-06-24T12:16:42.089Z,50.20
2018-06-24T12:19:13.895Z,49.70
2018-06-24T12:21:45.495Z,48.50
2018-06-24T12:24:17.105Z,48.00
2018-06-24T12:26:48.715Z,48.10
2018-06-24T12:29:20.314Z,48.10
2018-06-24T12:31:51.829Z,48.80
2018-06-24T12:34:23.505Z,49.70
2018-06-24T12:36:54.911Z,50.40
2018-06-24T12:39:26.617Z,50.80
2018-06-24T12:41:58.287Z,50.80
2018-06-24T12:44:29.875Z,50.40
2018-06-24T12:47:02.120Z,50.60
2018-06-24T12:49:33.958Z,51.00
2018-06-24T12:52:05.587Z,50.40
2018-06-24T12:54:37.932Z,49.50
2018-06-24T12:57:09.628Z,48.10
2018-06-24T12:59:41.538Z,48.70
2018-06-24T13:02:12.957Z,47.20
2018-06-24T13:04:44.635Z,46.30
2018-06-24T13:07:16.235Z,45.90
2018-06-24T13:09:47.940Z,45.40
2018-06-24T13:12:19.439Z,44.80
2018-06-24T13:14:51.085Z,45.10
2018-06-24T13:17:22.893Z,45.80
2018-06-24T13:19:54.354Z,45.20
2018-06-24T13:22:25.972Z,46.00
2018-06-24T13:24:57.508Z,45.70
2018-06-24T13:27:29.200Z,45.20
2018-06-24T13:30:00.527Z,45.80
2018-06-24T13:32:32.010Z,46.20
2018-06-24T13:35:03.697Z,45.10
2018-06-24T13:37:35.285Z,44.70
2018-06-24T13:40:07.376Z,44.50
2018-06-24T13:42:39.082Z,44.40
2018-06-24T13:45:11.071Z,45.30
2018-06-24T13:47:42.750Z,45.40
2018-06-24T13:50:14.490Z,45.60
2018-06-24T13:52:46.160Z,44.70
2018-06-24T13:55:17.668Z,46.60
2018-06-24T14:00:20.361Z,45.60
2018-06-24T14:02:52.025Z,45.30
2018-06-24T14:05:23.695Z,45.60
2018-06-24T14:07:55.319Z,46.10
2018-06-24T14:10:26.978Z,45.30
2018-06-24T14:12:58.217Z,45.90
2018-06-24T14:15:29.914Z,45.80
2018-06-24T14:20:32.183Z,46.10
2018-06-24T14:23:03.823Z,46.00
2018-06-24T14:25:35.514Z,46.00
2018-06-24T14:28:07.123Z,46.50
2018-06-24T14:30:38.822Z,46.60
2018-06-24T14:33:10.333Z,46.90
2018-06-24T14:35:42.013Z,47.40
2018-06-24T14:38:13.548Z,46.90
2018-06-24T14:40:45.213Z,46.30
2018-06-24T14:43:16.729Z,46.50
2018-06-24T14:45:48.338Z,46.10
2018-06-24T14:48:19.821Z,45.00
2018-06-24T14:50:51.544Z,45.60
2018-06-24T14:53:23.148Z,45.60
2018-06-24T14:55:54.853Z,46.10
2018-06-24T14:58:26.357Z,46.50
2018-06-24T15:00:57.850Z,46.40
2018-06-24T15:03:29.360Z,46.60
2018-06-24T15:06:00.993Z,47.00
2018-06-24T15:08:32.589Z,45.90
2018-06-24T15:11:04.297Z,45.80
2018-06-24T15:13:35.883Z,45.90
2018-06-24T15:16:07.598Z,46.50
2018-06-24T15:18:39.093Z,46.20
2018-06-24T15:21:10.904Z,46.10
2018-06-24T15:23:42.516Z,46.10
2018-06-24T15:26:14.138Z,46.10
2018-06-24T15:28:45.674Z,46.40
2018-06-24T15:31:17.393Z,45.90
2018-06-24T15:33:48.970Z,46.50
2018-06-24T15:36:20.737Z,46.20
2018-06-24T15:38:52.165Z,46.40
2018-06-24T15:41:23.744Z,46.30
2018-06-24T15:43:55.504Z,46.50
2018-06-24T15:46:27.158Z,46.80
2018-06-24T15:48:58.562Z,47.30
2018-06-24T15:51:30.346Z,47.10
2018-06-24T15:54:01.643Z,46.10
2018-06-24T15:56:33.494Z,46.50
2018-06-24T15:59:05.299Z,45.70
2018-06-24T16:01:36.825Z,45.40
2018-06-24T16:04:08.570Z,44.50
2018-06-24T16:06:40.220Z,44.90
2018-06-24T16:09:13.182Z,45.10
2018-06-24T16:11:44.857Z,45.00
2018-06-24T16:14:16.453Z,45.10
2018-06-24T16:16:47.994Z,45.20
2018-06-24T16:19:19.729Z,45.30
2018-06-24T16:21:51.314Z,45.60
2018-06-24T16:24:23.094Z,45.30
2018-06-24T16:26:54.724Z,46.00
2018-06-24T16:29:26.454Z,46.50
2018-06-24T16:31:57.910Z,46.80
2018-06-24T16:34:29.570Z,46.80
2018-06-24T16:37:00.985Z,46.70
2018-06-24T16:39:32.613Z,46.40
2018-06-24T16:42:03.902Z,46.60
2018-06-24T16:44:35.569Z,46.40
2018-06-24T16:47:07.145Z,45.90
2018-06-24T16:49:38.791Z,45.70
2018-06-24T16:52:10.533Z,46.40
2018-06-24T16:54:42.190Z,46.40
2018-06-24T16:57:13.738Z,46.40
2018-06-24T16:59:45.301Z,46.80
2018-06-24T17:02:17.013Z,47.20
2018-06-24T17:04:48.712Z,47.30
2018-06-24T17:07:20.257Z,47.10
2018-06-24T17:09:51.990Z,47.80
2018-06-24T17:12:23.668Z,48.30
2018-06-24T17:14:55.350Z,48.20
2018-06-24T17:17:26.881Z,48.70
2018-06-24T17:19:58.586Z,49.00
2018-06-24T17:22:30.205Z,49.40
2018-06-24T17:25:01.625Z,49.50
2018-06-24T17:27:33.178Z,49.60
2018-06-24T17:30:04.659Z,49.50
2018-06-24T17:32:36.289Z,49.50
2018-06-24T17:35:07.976Z,49.60
2018-06-24T17:37:39.501Z,49.70
2018-06-24T17:40:11.190Z,49.90
2018-06-24T17:42:42.860Z,50.20
2018-06-24T17:45:14.501Z,50.60
2018-06-24T17:47:46.117Z,50.10
2018-06-24T17:50:17.734Z,49.40
2018-06-24T17:52:49.632Z,49.30
2018-06-24T17:55:21.160Z,49.60
2018-06-24T17:57:52.986Z,49.80
2018-06-24T18:00:24.609Z,50.00
2018-06-24T18:02:56.254Z,50.50
2018-06-24T18:05:28.025Z,50.40
2018-06-24T18:07:59.597Z,50.40
2018-06-24T18:10:31.279Z,50.30
2018-06-24T18:13:02.669Z,50.50
2018-06-24T18:15:34.343Z,50.60
2018-06-24T18:18:06.193Z,51.00
2018-06-24T18:20:37.894Z,51.30
2018-06-24T18:23:09.467Z,51.50
2018-06-24T18:25:41.194Z,51.80
2018-06-24T18:28:12.912Z,51.70
2018-06-24T18:30:44.444Z,51.70
2018-06-24T18:33:16.029Z,51.80
2018-06-24T18:35:47.740Z,51.80
2018-06-24T18:38:19.301Z,52.00
2018-06-24T18:40:50.877Z,52.10
2018-06-24T18:43:22.609Z,52.20
2018-06-24T18:45:54.231Z,52.30
2018-06-24T18:48:25.913Z,52.30
2018-06-24T18:50:57.494Z,52.30
2018-06-24T18:53:29.221Z,53.10
2018-06-24T18:56:00.977Z,52.80
2018-06-24T18:58:32.601Z,52.90
2018-06-24T19:01:04.352Z,52.90
2018-06-24T19:03:35.951Z,52.90
2018-06-24T19:06:07.820Z,53.10
2018-06-24T19:08:39.470Z,53.40
2018-06-24T19:11:11.238Z,54.20
2018-06-24T19:13:42.739Z,53.70
2018-06-24T19:16:14.369Z,53.90
2018-06-24T19:18:46.000Z,53.80
2018-06-24T19:21:17.938Z,53.90
2018-06-24T19:23:49.592Z,54.10
2018-06-24T19:26:21.097Z,54.30
2018-06-24T19:28:52.825Z,54.20
2018-06-24T19:31:24.382Z,54.30
2018-06-24T19:33:56.154Z,54.30
2018-06-24T19:36:27.687Z,54.60
2018-06-24T19:38:59.355Z,54.50
2018-06-24T19:41:31.069Z,54.60
2018-06-24T19:44:02.613Z,54.80
2018-06-24T19:46:34.441Z,54.90
2018-06-24T19:51:37.014Z,55.10
2018-06-24T19:54:08.733Z,55.20
2018-06-24T19:56:40.354Z,55.20
2018-06-24T19:59:11.931Z,55.30
2018-06-24T20:01:43.646Z,55.60
2018-06-24T20:04:15.181Z,55.40
2018-06-24T20:06:46.874Z,55.40
2018-06-24T20:09:18.362Z,55.30
2018-06-24T20:11:49.962Z,55.10
2018-06-24T20:14:21.727Z,55.00
2018-06-24T20:16:53.494Z,54.80
2018-06-24T20:19:24.994Z,54.70
2018-06-24T20:21:56.797Z,54.70
2018-06-24T20:24:28.558Z,54.90
2018-06-24T20:27:00.317Z,55.60
2018-06-24T20:29:31.921Z,55.00
2018-06-24T20:32:03.413Z,55.00
2018-06-24T20:34:34.953Z,55.20
2018-06-24T20:37:06.837Z,55.20
2018-06-24T20:39:38.478Z,55.30
2018-06-24T20:42:10.149Z,55.80
2018-06-24T20:44:41.821Z,55.10
2018-06-24T20:47:13.380Z,55.20
2018-06-24T20:49:44.885Z,55.30
2018-06-24T20:52:16.574Z,55.40
2018-06-24T20:54:48.122Z,55.30
2018-06-24T20:57:19.889Z,55.20
2018-06-24T20:59:51.550Z,55.20
2018-06-24T21:02:23.415Z,55.10
2018-06-24T21:04:54.942Z,55.40
2018-06-24T21:07:26.608Z,55.50
2018-06-24T21:12:28.902Z,55.60
2018-06-24T21:15:00.434Z,55.40
2018-06-24T21:17:32.684Z,55.50
2018-06-24T21:20:04.098Z,55.40
2018-06-24T21:22:35.735Z,55.60
2018-06-24T21:25:07.332Z,55.70
2018-06-24T21:27:39.041Z,55.90
2018-06-24T21:30:10.654Z,56.10
2018-06-24T21:32:42.280Z,56.20
2018-06-24T21:35:14.068Z,56.30
2018-06-24T21:37:45.730Z,56.50
2018-06-24T21:40:17.378Z,56.80
2018-06-24T21:42:49.138Z,56.80
2018-06-24T21:45:20.721Z,56.90
2018-06-24T21:47:52.399Z,56.80
2018-06-24T21:50:24.006Z,56.80
2018-06-24T21:52:55.612Z,56.60
2018-06-24T21:55:27.161Z,56.80
2018-06-24T21:57:58.859Z,56.90
2018-06-24T22:00:30.778Z,57.10
2018-06-24T22:03:05.963Z,57.10
2018-06-24T22:05:37.525Z,57.20
2018-06-24T22:08:09.229Z,57.20
2018-06-24T22:10:40.988Z,57.30
2018-06-24T22:13:12.643Z,57.40
2018-06-24T22:18:15.346Z,57.60
2018-06-24T22:20:46.890Z,57.60
2018-06-24T22:23:18.569Z,57.70
2018-06-24T22:25:50.061Z,57.80
2018-06-24T22:28:21.690Z,57.80
2018-06-24T22:30:53.289Z,58.00
2018-06-24T22:33:25.014Z,57.90
2018-06-24T22:35:56.735Z,58.00
2018-06-24T22:38:28.493Z,58.00
2018-06-24T22:41:00.159Z,58.10
2018-06-24T22:43:31.905Z,57.70
2018-06-24T22:46:03.445Z,58.30
2018-06-24T22:48:35.166Z,58.30
2018-06-24T22:51:06.744Z,58.50
2018-06-24T22:53:38.535Z,58.60
2018-06-24T22:56:10.145Z,58.70
2018-06-24T22:58:41.973Z,58.00
2018-06-24T23:01:13.767Z,58.40
2018-06-24T23:03:45.369Z,58.50
2018-06-24T23:06:16.908Z,58.40
2018-06-24T23:08:48.574Z,58.40
2018-06-24T23:11:20.110Z,58.60
2018-06-24T23:13:51.820Z,58.40
2018-06-24T23:16:23.305Z,58.50
2018-06-24T23:18:54.997Z,58.80
2018-06-24T23:21:26.670Z,58.90
2018-06-24T23:23:58.238Z,58.80
2018-06-24T23:26:29.983Z,58.90
2018-06-24T23:29:01.522Z,58.90
2018-06-24T23:31:33.133Z,58.90
2018-06-24T23:34:04.934Z,59.00
2018-06-24T23:36:36.453Z,59.00
2018-06-24T23:39:10.372Z,59.00
2018-06-24T23:41:42.009Z,59.30
2018-06-24T23:44:13.661Z,59.60
2018-06-24T23:46:45.327Z,59.60
2018-06-24T23:49:16.909Z,59.70
2018-06-24T23:51:48.529Z,59.70
2018-06-24T23:54:20.211Z,59.80
2018-06-24T23:56:51.769Z,59.90
2018-06-24T23:59:23.774Z,60.00
